Latest Weather Observations for Morawa Airport

IDW60801

Issued at 9:35 pm WST Tuesday 30 September 2014 (issued every 30 minutes, with the page automatically refreshed every 10 minutes)

About weather observations | Map of weather stations | Latest weather observations for WA | Other Formats
Station Details ID: 008296 Name: MORAWA AIRPORT Lat: -29.20 Lon: 116.02 Height: 271.4 m
Data from the previous 72 hours. | See also: Recent months at Morawa Airport
Date/Time
WST
Temp
°C
App
Temp
°C
Dew
Point
Rel
Hum
%
Delta-T
°C
Wind Press
QNH
hPa
Press
MSL
hPa
Rain
since 9 am
mm
Dir
 
Spd
km/h
Gust
km/h
Spd
kts
Gust
kts
30/09:30pm 18.0 15.5 6.5 47 5.8 SSE 9 13 5 7 1018.9 1018.5 0.0
30/09:00pm 18.6 16.0 6.1 44 6.2 S 9 13 5 7 1019.1 1018.8 0.0
30/08:30pm 19.3 17.1 6.4 43 6.5 S 7 9 4 5 1019.3 1019.0 0.0
30/08:00pm 19.8 17.7 6.5 42 6.7 S 7 7 4 4 1019.3 1019.0 0.0
30/07:30pm 20.6 18.6 6.9 41 7.1 SSE 7 9 4 5 1019.1 1018.8 0.0
30/07:00pm 21.5 19.3 6.2 37 7.8 SSE 7 9 4 5 1018.9 1018.5 0.0
30/06:30pm 22.7 20.0 5.6 33 8.7 SE 9 13 5 7 1018.5 1018.1 0.0
30/06:00pm 25.1 21.7 5.8 29 10.0 SSE 13 17 7 9 1018.2 1017.8 0.0
30/05:30pm 26.4 23.4 5.9 27 10.7 SE 11 17 6 9 1017.9 1017.5 0.0
30/05:00pm 27.2 24.6 6.0 26 11.2 SE 9 17 5 9 1017.8 1017.4 0.0
30/04:30pm 27.0 23.8 5.3 25 11.3 E 11 19 6 10 1017.8 1017.4 0.0
30/04:00pm 27.2 24.1 5.5 25 11.3 E 11 19 6 10 1017.9 1017.5 0.0
30/03:30pm 27.0 24.4 5.9 26 11.1 E 9 17 5 9 1018.1 1017.7 0.0
30/03:00pm 26.4 24.2 6.4 28 10.5 SSE 7 15 4 8 1018.1 1017.7 0.0
30/02:30pm 25.9 23.4 6.5 29 10.2 E 9 19 5 10 1018.3 1017.9 0.0
30/02:00pm 25.9 24.0 7.5 31 9.9 SE 7 20 4 11 1018.5 1018.1 0.0
30/01:30pm 25.2 21.9 8.2 34 9.2 SE 15 26 8 14 1018.9 1018.5 0.0
30/01:00pm 24.8 21.9 8.3 35 8.9 ESE 13 24 7 13 1019.4 1019.1 0.0
30/12:30pm 23.9 20.8 8.7 38 8.2 SE 15 24 8 13 1019.8 1019.5 0.0
30/12:00pm 23.0 19.9 9.0 41 7.6 E 15 22 8 12 1020.2 1019.9 0.0
30/11:30am 22.8 19.8 9.2 42 7.4 ESE 15 30 8 16 1020.7 1020.4 0.0
30/11:00am 21.9 19.0 9.8 46 6.6 ESE 15 24 8 13 1021.1 1020.8 0.0
30/10:30am 20.4 17.1 9.6 50 5.8 E 17 32 9 17 1021.6 1021.2 0.0
30/10:00am 19.8 15.8 9.1 50 5.7 E 20 28 11 15 1022.0 1021.6 0.0
30/09:30am 18.3 13.9 9.1 55 4.9 ESE 22 30 12 16 1022.2 1021.8 0.0
30/09:00am 17.5 13.6 9.4 59 4.3 ESE 20 28 11 15 1022.4 1022.1 0.0
30/08:30am 16.4 11.7 9.1 62 3.8 ESE 24 30 13 16 1022.3 1022.0 0.0
30/08:00am 15.4 11.6 9.7 69 3.0 ESE 20 28 11 15 1022.4 1022.1 0.0
30/07:30am 13.9 11.4 11.1 83 1.5 ESE 15 24 8 13 1022.4 1022.1 0.0
30/07:00am 12.4 11.0 12.1 98 0.2 SE 11 15 6 8 1022.1 1021.7 0.0
30/06:30am 11.1 10.1 11.1 100 0.0 SE 7 13 4 7 1021.8 1021.4 0.0
30/06:00am 10.1 8.5 10.1 100 0.0 SE 9 11 5 6 1021.6 1021.2 0.0
30/05:30am 10.0 8.3 10.0 100 0.0 SSE 9 13 5 7 1021.4 1021.0 0.0
30/05:00am 10.4 9.2 10.4 100 0.0 SE 7 11 4 6 1021.3 1020.9 0.0
30/04:30am 10.2 9.2 10.2 100 0.0 SSE 6 9 3 5 1020.8 1020.5 0.0
30/04:00am 10.7 9.8 10.7 100 0.0 S 6 7 3 4 1020.7 1020.4 0.0
30/03:30am 11.0 10.2 11.0 100 0.0 S 6 7 3 4 1020.6 1020.3 0.0
30/03:00am 11.0 10.6 11.0 100 0.0 S 4 4 2 2 1020.6 1020.3 0.0
30/02:30am 11.6 10.8 11.6 100 0.0 S 7 9 4 5 1020.6 1020.3 0.0
30/02:00am 11.9 10.8 11.9 100 0.0 S 9 11 5 6 1020.7 1020.4 0.0
30/01:30am 12.3 11.3 12.3 100 0.0 S 9 11 5 6 1020.8 1020.5 0.0
30/01:00am 12.4 11.8 12.4 100 0.0 S 7 11 4 6 1020.8 1020.5 0.0
30/12:30am 12.7 12.2 12.5 99 0.1 S 7 9 4 5 1021.0 1020.7 0.0
30/12:00am 13.4 12.2 12.9 97 0.3 S 11 13 6 7 1021.0 1020.7 0.0
 
Date/Time
WST
Temp
°C
App
Temp
°C
Dew
Point
Rel
Hum
%
Delta-T
°C
Wind Press
QNH
hPa
Press
MSL
hPa
Rain
since 9 am
mm
Dir
 
Spd
km/h
Gust
km/h
Spd
kts
Gust
kts
29/11:30pm 13.6 12.8 12.8 95 0.4 S 9 13 5 7 1020.9 1020.6 0.0
29/11:00pm 14.1 12.9 12.8 92 0.7 S 11 17 6 9 1020.9 1020.6 0.0
29/10:30pm 14.3 13.4 12.5 89 1.0 SSW 9 13 5 7 1021.0 1020.7 0.0
29/10:00pm 14.9 13.6 12.6 86 1.3 SSW 11 15 6 8 1021.0 1020.7 0.0
29/09:30pm 15.4 13.3 12.3 82 1.7 SSW 15 22 8 12 1020.9 1020.6 0.0
29/09:00pm 16.1 13.9 12.1 77 2.2 SW 15 22 8 12 1020.8 1020.5 0.0
29/08:30pm 16.6 14.0 12.0 74 2.5 SSW 17 26 9 14 1020.5 1020.2 0.0
29/08:00pm 17.3 14.7 12.0 71 2.9 SSW 17 26 9 14 1020.2 1019.9 0.0
29/07:30pm 17.8 15.6 10.7 63 3.9 WSW 13 17 7 9 1019.8 1019.5 0.0
29/07:00pm 18.7 17.4 10.0 57 4.7 SW 7 13 4 7 1019.2 1018.9 0.0
29/06:30pm 19.6 17.9 10.0 54 5.2 SW 9 13 5 7 1018.8 1018.4 0.0
29/06:00pm 20.5 18.1 10.0 51 5.7 SSW 13 19 7 10 1018.4 1018.0 0.0
29/05:30pm 21.5 18.7 10.0 48 6.3 SSW 15 20 8 11 1018.2 1017.8 0.0
29/05:00pm 22.4 18.9 7.4 38 7.9 SW 15 24 8 13 1018.0 1017.6 0.0
29/04:30pm 21.8 17.8 8.3 42 7.2 SW 19 26 10 14 1018.0 1017.6 0.0
29/04:00pm 23.1 19.1 8.4 39 7.9 SSW 19 24 10 13 1017.8 1017.4 0.0
29/03:30pm 23.6 20.3 9.6 41 7.7 SSW 17 28 9 15 1017.8 1017.4 0.0
29/03:00pm 23.6 20.2 10.6 44 7.3 S 19 28 10 15 1017.8 1017.4 0.0
29/02:30pm 22.1 19.2 9.6 45 6.8 SW 15 22 8 12 1017.7 1017.3 0.0
29/02:00pm 23.4 20.2 8.3 38 8.1 S 15 24 8 13 1017.8 1017.4 0.0
29/01:30pm 22.2 19.0 8.3 41 7.4 SW 15 22 8 12 1018.1 1017.7 0.0
29/01:00pm 22.3 18.2 7.7 39 7.7 WSW 19 26 10 14 1018.3 1017.9 0.0
29/12:30pm 23.0 19.9 8.7 40 7.7 WNW 15 26 8 14 1018.5 1018.1 0.0
29/12:00pm 21.2 18.0 8.5 44 6.7 WNW 15 22 8 12 1019.0 1018.6 0.0
29/11:30am 21.4 18.5 8.0 42 7.1 WNW 13 24 7 13 1019.2 1018.9 0.0
29/11:00am 21.1 18.4 9.0 46 6.5 W 13 19 7 10 1019.2 1018.9 0.0
29/10:30am 20.3 20.2 10.7 54 5.3 WNW 2 7 1 4 1019.4 1019.1 0.0
29/10:00am 18.9 17.8 10.5 58 4.6 W 7 13 4 7 1019.7 1019.4 0.0
29/09:30am 17.6 16.9 11.4 67 3.4 SW 6 9 3 5 1019.7 1019.4 0.0
29/09:00am 16.8 16.3 11.9 73 2.7 WSW 6 11 3 6 1019.7 1019.4 0.0
29/08:30am 15.3 16.1 12.4 83 1.6 CALM 0 4 0 2 1019.5 1019.2 0.0
29/08:00am 14.0 14.5 12.9 93 0.6 N 2 4 1 2 1019.3 1019.0 0.0
29/07:30am 12.7 12.8 12.7 100 0.0 W 4 6 2 3 1019.1 1018.8 0.0
29/07:00am 11.3 10.6 11.3 100 0.0 W 6 7 3 4 1018.7 1018.3 0.0
29/06:30am 9.1 8.5 9.1 100 0.0 W 2 4 1 2 1018.5 1018.1 0.0
29/06:00am 8.4 7.3 8.4 100 0.0 W 4 6 2 3 1018.4 1018.0 0.0
29/05:30am 8.3 7.5 8.3 100 0.0 W 2 4 1 2 1018.3 1017.9 0.0
29/05:00am 8.3 7.9 8.3 100 0.0 CALM 0 0 0 0 1017.8 1017.4 0.0
29/04:30am 8.3 7.9 8.3 100 0.0 CALM 0 0 0 0 1017.8 1017.4 0.0
29/04:00am 8.7 8.4 8.7 100 0.0 CALM 0 0 0 0 1017.7 1017.3 0.0
29/03:30am 8.8 7.8 8.8 100 0.0 W 4 4 2 2 1017.5 1017.1 0.0
29/03:00am 8.8 8.2 8.8 100 0.0 W 2 4 1 2 1017.6 1017.2 0.0
29/02:30am 9.0 8.0 9.0 100 0.0 W 4 4 2 2 1018.0 1017.6 0.0
29/02:00am 9.4 8.5 9.4 100 0.0 W 4 4 2 2 1017.9 1017.5 0.0
29/01:30am 9.9 9.2 9.9 100 0.0 W 4 4 2 2 1018.0 1017.6 0.0
29/01:00am 10.2 9.9 10.2 100 0.0 W 2 4 1 2 1018.1 1017.7 0.0
29/12:30am 10.7 9.8 10.7 100 0.0 W 6 6 3 3 1018.3 1017.9 0.0
29/12:00am 11.0 10.5 10.8 99 0.1 W 4 6 2 3 1018.5 1018.1 0.0
 
Date/Time
WST
Temp
°C
App
Temp
°C
Dew
Point
Rel
Hum
%
Delta-T
°C
Wind Press
QNH
hPa
Press
MSL
hPa
Rain
since 9 am
mm
Dir
 
Spd
km/h
Gust
km/h
Spd
kts
Gust
kts
28/11:30pm 11.5 11.1 11.2 98 0.2 WSW 4 6 2 3 1018.6 1018.2 0.0
28/11:00pm 11.9 11.5 11.0 94 0.5 SW 4 6 2 3 1018.8 1018.4 0.0
28/10:30pm 12.5 11.7 11.2 92 0.7 SW 6 7 3 4 1018.9 1018.5 0.0
28/10:00pm 13.0 12.2 11.2 89 1.0 SW 6 7 3 4 1019.2 1018.9 0.0
28/09:30pm 13.4 12.4 10.9 85 1.3 SW 7 13 4 7 1019.5 1019.2 0.0
28/09:00pm 14.0 12.4 10.2 78 2.0 SW 9 13 5 7 1019.5 1019.2 0.0
28/08:30pm 14.5 12.3 9.5 72 2.6 SW 11 17 6 9 1019.4 1019.1 0.0
28/08:00pm 15.0 12.4 9.4 69 2.9 WSW 13 17 7 9 1019.2 1018.9 0.0
28/07:30pm 15.4 12.5 9.5 68 3.1 SW 15 22 8 12 1019.0 1018.6 0.0
28/07:00pm 16.1 12.7 9.3 64 3.6 SW 17 24 9 13 1018.9 1018.5 0.0
28/06:30pm 17.0 13.5 8.9 59 4.2 SW 17 22 9 12 1018.7 1018.3 0.0
28/06:00pm 17.6 13.6 9.0 57 4.5 SW 20 32 11 17 1018.4 1018.0 0.0
28/05:30pm 19.0 16.4 7.8 48 5.8 WSW 11 20 6 11 1018.0 1017.6 0.0
28/05:00pm 19.6 15.9 8.0 47 6.0 W 17 24 9 13 1017.9 1017.5 0.0
28/04:30pm 20.0 17.4 7.7 45 6.4 W 11 19 6 10 1017.7 1017.3 0.0
28/04:00pm 21.0 16.4 8.3 44 6.7 W 22 33 12 18 1017.6 1017.2 0.0
28/03:30pm 20.4 17.3 7.4 43 6.7 NW 13 20 7 11 1017.6 1017.2 0.0
28/03:00pm 20.2 17.7 8.2 46 6.3 W 11 22 6 12 1017.8 1017.4 0.0
28/02:30pm 20.1 17.5 7.8 45 6.4 WSW 11 20 6 11 1017.8 1017.4 0.0
28/02:00pm 21.0 19.6 8.9 46 6.5 WNW 6 20 3 11 1018.0 1017.6 0.0
28/01:30pm 20.5 17.5 7.5 43 6.8 WNW 13 20 7 11 1018.2 1017.8 0.0
28/01:00pm 19.3 17.4 7.4 46 6.1 WNW 7 15 4 8 1018.6 1018.2 0.0
28/12:30pm 18.9 16.4 8.0 49 5.7 NW 11 19 6 10 1018.9 1018.5 0.0
28/12:00pm 18.0 15.8 7.7 51 5.3 W 9 19 5 10 1019.2 1018.9 0.0
28/11:30am 19.1 17.5 8.7 51 5.5 WNW 7 13 4 7 1019.4 1019.1 0.0
28/11:00am 17.5 15.1 7.0 50 5.3 W 9 17 5 9 1019.7 1019.4 0.0
28/10:30am 17.4 15.2 7.7 53 5.0 W 9 17 5 9 1019.8 1019.5 0.0
28/10:00am 17.3 15.0 7.6 53 4.9 WSW 9 15 5 8 1019.8 1019.5 0.0
28/09:30am 16.8 14.0 6.9 52 5.0 W 11 19 6 10 1019.7 1019.4 0.0
28/09:00am 16.0 13.5 6.7 54 4.6 WSW 9 17 5 9 1019.8 1019.5 4.6
28/08:30am 15.8 13.9 6.5 54 4.6 WSW 6 11 3 6 1019.7 1019.4 4.6
28/08:00am 14.6 13.1 8.5 67 3.1 WSW 6 11 3 6 1019.6 1019.3 4.6
28/07:30am 13.7 13.0 8.7 72 2.6 SW 2 4 1 2 1019.4 1019.1 4.6
28/07:00am 13.1 12.2 9.2 77 2.0 WNW 4 7 2 4 1019.2 1018.9 4.6
28/06:30am 12.8 11.6 9.4 80 1.7 WNW 6 7 3 4 1018.9 1018.5 4.6
28/06:00am 12.4 11.1 9.2 81 1.6 WNW 6 7 3 4 1018.7 1018.3 4.6
28/05:30am 12.6 11.2 8.9 78 1.9 W 6 9 3 5 1018.4 1018.0 4.6
28/05:00am 12.5 11.4 8.6 77 2.0 WNW 4 7 2 4 1018.2 1017.8 4.6
28/04:30am 12.8 11.0 7.9 72 2.4 WSW 7 11 4 6 1017.9 1017.5 4.6
28/04:00am 12.5 10.9 8.2 75 2.1 WSW 6 9 3 5 1017.8 1017.4 4.6
28/03:30am 12.5 10.8 8.2 75 2.2 W 7 11 4 6 1017.8 1017.4 4.6
28/03:00am 12.5 10.7 7.8 73 2.3 WNW 7 11 4 6 1017.7 1017.3 4.6
28/02:30am 12.2 10.1 8.1 76 2.0 W 9 13 5 7 1017.7 1017.3 4.6
28/02:00am 11.8 10.3 9.0 83 1.4 W 7 11 4 6 1017.9 1017.5 4.6
28/01:30am 11.4 10.1 9.8 90 0.8 W 7 9 4 5 1017.8 1017.4 4.6
28/01:00am 11.4 9.9 9.3 87 1.1 W 7 9 4 5 1017.8 1017.4 4.6
28/12:30am 11.6 10.3 9.3 86 1.2 W 6 9 3 5 1017.8 1017.4 4.6
28/12:00am 11.4 10.6 9.5 88 1.0 W 4 7 2 4 1017.8 1017.4 4.6
 
Date/Time
WST
Temp
°C
App
Temp
°C
Dew
Point
Rel
Hum
%
Delta-T
°C
Wind Press
QNH
hPa
Press
MSL
hPa
Rain
since 9 am
mm
Dir
 
Spd
km/h
Gust
km/h
Spd
kts
Gust
kts
27/11:30pm 11.6 10.2 8.8 83 1.4 WNW 6 7 3 4 1017.8 1017.4 4.6
27/11:00pm 11.5 10.6 9.4 87 1.1 W 4 6 2 3 1017.8 1017.4 4.6
27/10:30pm 11.4 10.0 9.7 89 0.9 W 7 9 4 5 1017.9 1017.5 4.6
27/10:00pm 11.3 10.3 10.2 93 0.6 W 6 7 3 4 1017.9 1017.5 4.6

Other Formats:

Comma delimited format used in spreadsheet applications
http://www.bom.gov.au/fwo/IDW60801/IDW60801.94417.axf

JavaScript Object Notation format (JSON) in row-major order
http://www.bom.gov.au/fwo/IDW60801/IDW60801.94417.json